sensor_id;sensor_type;location;lat;lon;timestamp;P1;durP1;ratioP1;P2;durP2;ratioP2
63120;SDS011;54478;48.684;20.114;2023-04-24T00:01:48;15.40;;;7.93;;
63120;SDS011;54478;48.684;20.114;2023-04-24T00:04:16;11.52;;;7.68;;
63120;SDS011;54478;48.684;20.114;2023-04-24T00:06:44;10.85;;;6.03;;
63120;SDS011;54478;48.684;20.114;2023-04-24T00:09:17;11.32;;;7.28;;
63120;SDS011;54478;48.684;20.114;2023-04-24T00:11:45;11.80;;;6.10;;
63120;SDS011;54478;48.684;20.114;2023-04-24T00:14:13;15.90;;;7.93;;
63120;SDS011;54478;48.684;20.114;2023-04-24T00:16:41;14.75;;;7.43;;
63120;SDS011;54478;48.684;20.114;2023-04-24T00:19:09;11.65;;;6.88;;
63120;SDS011;54478;48.684;20.114;2023-04-24T00:21:36;15.70;;;8.20;;
63120;SDS011;54478;48.684;20.114;2023-04-24T00:24:04;18.35;;;8.15;;
63120;SDS011;54478;48.684;20.114;2023-04-24T00:26:32;14.50;;;6.85;;
63120;SDS011;54478;48.684;20.114;2023-04-24T00:29:00;15.38;;;7.60;;
63120;SDS011;54478;48.684;20.114;2023-04-24T00:31:28;14.02;;;7.72;;
63120;SDS011;54478;48.684;20.114;2023-04-24T00:33:57;17.70;;;7.30;;
63120;SDS011;54478;48.684;20.114;2023-04-24T00:36:25;15.90;;;6.78;;
63120;SDS011;54478;48.684;20.114;2023-04-24T00:38:54;13.52;;;7.47;;
63120;SDS011;54478;48.684;20.114;2023-04-24T00:41:24;14.00;;;6.85;;
63120;SDS011;54478;48.684;20.114;2023-04-24T00:43:52;10.57;;;6.22;;
63120;SDS011;54478;48.684;20.114;2023-04-24T00:46:20;10.55;;;5.93;;
63120;SDS011;54478;48.684;20.114;2023-04-24T00:48:49;12.75;;;5.75;;
63120;SDS011;54478;48.684;20.114;2023-04-24T00:51:18;10.38;;;5.47;;
63120;SDS011;54478;48.684;20.114;2023-04-24T00:53:46;10.63;;;5.78;;
63120;SDS011;54478;48.684;20.114;2023-04-24T00:56:14;9.68;;;5.60;;
63120;SDS011;54478;48.684;20.114;2023-04-24T00:58:42;11.63;;;5.38;;
63120;SDS011;54478;48.684;20.114;2023-04-24T01:01:11;10.77;;;5.30;;
63120;SDS011;54478;48.684;20.114;2023-04-24T01:03:39;9.30;;;5.45;;
63120;SDS011;54478;48.684;20.114;2023-04-24T01:06:08;10.40;;;5.45;;
63120;SDS011;54478;48.684;20.114;2023-04-24T01:08:37;10.45;;;5.63;;
63120;SDS011;54478;48.684;20.114;2023-04-24T01:11:06;8.73;;;5.15;;
63120;SDS011;54478;48.684;20.114;2023-04-24T01:13:34;9.73;;;4.90;;
63120;SDS011;54478;48.684;20.114;2023-04-24T01:16:02;9.15;;;5.35;;
63120;SDS011;54478;48.684;20.114;2023-04-24T01:18:30;8.75;;;5.45;;
63120;SDS011;54478;48.684;20.114;2023-04-24T01:20:58;10.40;;;5.00;;
63120;SDS011;54478;48.684;20.114;2023-04-24T01:23:24;7.35;;;4.75;;
63120;SDS011;54478;48.684;20.114;2023-04-24T01:25:52;11.00;;;5.15;;
63120;SDS011;54478;48.684;20.114;2023-04-24T01:28:20;10.05;;;5.35;;
63120;SDS011;54478;48.684;20.114;2023-04-24T01:30:48;17.27;;;5.45;;
63120;SDS011;54478;48.684;20.114;2023-04-24T01:33:16;7.10;;;3.72;;
63120;SDS011;54478;48.684;20.114;2023-04-24T01:35:45;9.35;;;5.35;;
63120;SDS011;54478;48.684;20.114;2023-04-24T01:38:13;10.50;;;5.78;;
63120;SDS011;54478;48.684;20.114;2023-04-24T01:40:41;9.27;;;5.78;;
63120;SDS011;54478;48.684;20.114;2023-04-24T01:43:09;7.40;;;5.05;;
63120;SDS011;54478;48.684;20.114;2023-04-24T01:45:37;10.45;;;4.85;;
63120;SDS011;54478;48.684;20.114;2023-04-24T01:48:05;11.27;;;5.20;;
63120;SDS011;54478;48.684;20.114;2023-04-24T01:50:33;10.00;;;4.70;;
63120;SDS011;54478;48.684;20.114;2023-04-24T01:53:01;7.88;;;4.95;;
63120;SDS011;54478;48.684;20.114;2023-04-24T01:55:30;8.50;;;5.03;;
63120;SDS011;54478;48.684;20.114;2023-04-24T01:57:58;12.13;;;5.82;;
63120;SDS011;54478;48.684;20.114;2023-04-24T02:00:27;8.27;;;4.72;;
63120;SDS011;54478;48.684;20.114;2023-04-24T02:02:55;7.68;;;5.10;;
63120;SDS011;54478;48.684;20.114;2023-04-24T02:05:23;10.63;;;5.15;;
63120;SDS011;54478;48.684;20.114;2023-04-24T02:07:51;10.93;;;6.20;;
63120;SDS011;54478;48.684;20.114;2023-04-24T02:10:19;10.25;;;5.18;;
63120;SDS011;54478;48.684;20.114;2023-04-24T02:12:47;7.13;;;4.55;;
63120;SDS011;54478;48.684;20.114;2023-04-24T02:15:16;7.72;;;5.22;;
63120;SDS011;54478;48.684;20.114;2023-04-24T02:17:45;9.85;;;4.80;;
63120;SDS011;54478;48.684;20.114;2023-04-24T02:20:13;7.93;;;4.57;;
63120;SDS011;54478;48.684;20.114;2023-04-24T02:22:38;8.35;;;5.35;;
63120;SDS011;54478;48.684;20.114;2023-04-24T02:25:06;7.82;;;4.53;;
63120;SDS011;54478;48.684;20.114;2023-04-24T02:27:35;9.93;;;4.78;;
63120;SDS011;54478;48.684;20.114;2023-04-24T02:30:04;9.23;;;5.05;;
63120;SDS011;54478;48.684;20.114;2023-04-24T02:32:32;6.68;;;4.88;;
63120;SDS011;54478;48.684;20.114;2023-04-24T02:35:02;8.20;;;4.68;;
63120;SDS011;54478;48.684;20.114;2023-04-24T02:37:30;15.93;;;5.80;;
63120;SDS011;54478;48.684;20.114;2023-04-24T02:39:58;10.02;;;5.07;;
63120;SDS011;54478;48.684;20.114;2023-04-24T02:42:26;8.48;;;5.03;;
63120;SDS011;54478;48.684;20.114;2023-04-24T02:44:54;8.55;;;5.50;;
63120;SDS011;54478;48.684;20.114;2023-04-24T02:47:22;8.82;;;5.07;;
63120;SDS011;54478;48.684;20.114;2023-04-24T02:49:50;10.10;;;6.30;;
63120;SDS011;54478;48.684;20.114;2023-04-24T02:52:18;12.40;;;6.18;;
63120;SDS011;54478;48.684;20.114;2023-04-24T02:54:46;7.70;;;5.20;;
63120;SDS011;54478;48.684;20.114;2023-04-24T02:57:14;9.35;;;5.60;;
63120;SDS011;54478;48.684;20.114;2023-04-24T02:59:42;8.38;;;4.82;;
63120;SDS011;54478;48.684;20.114;2023-04-24T03:02:10;10.00;;;4.75;;
63120;SDS011;54478;48.684;20.114;2023-04-24T03:04:38;14.70;;;4.43;;
63120;SDS011;54478;48.684;20.114;2023-04-24T03:07:08;9.00;;;4.70;;
63120;SDS011;54478;48.684;20.114;2023-04-24T03:09:36;7.93;;;4.50;;
63120;SDS011;54478;48.684;20.114;2023-04-24T03:12:04;7.53;;;5.35;;
63120;SDS011;54478;48.684;20.114;2023-04-24T03:14:32;8.77;;;5.35;;
63120;SDS011;54478;48.684;20.114;2023-04-24T03:17:00;8.10;;;4.78;;
63120;SDS011;54478;48.684;20.114;2023-04-24T03:19:28;8.55;;;4.43;;
63120;SDS011;54478;48.684;20.114;2023-04-24T03:21:53;12.18;;;5.72;;
63120;SDS011;54478;48.684;20.114;2023-04-24T03:24:21;10.40;;;5.35;;
63120;SDS011;54478;48.684;20.114;2023-04-24T03:26:50;11.90;;;5.65;;
63120;SDS011;54478;48.684;20.114;2023-04-24T03:29:18;10.75;;;5.38;;
63120;SDS011;54478;48.684;20.114;2023-04-24T03:31:46;9.02;;;6.75;;
63120;SDS011;54478;48.684;20.114;2023-04-24T03:34:14;10.00;;;5.70;;
63120;SDS011;54478;48.684;20.114;2023-04-24T03:36:42;8.15;;;4.97;;
63120;SDS011;54478;48.684;20.114;2023-04-24T03:39:10;13.43;;;5.53;;
63120;SDS011;54478;48.684;20.114;2023-04-24T03:41:39;7.43;;;4.22;;
63120;SDS011;54478;48.684;20.114;2023-04-24T03:44:07;11.90;;;5.80;;
63120;SDS011;54478;48.684;20.114;2023-04-24T03:46:35;10.13;;;5.60;;
63120;SDS011;54478;48.684;20.114;2023-04-24T03:49:03;9.13;;;4.88;;
63120;SDS011;54478;48.684;20.114;2023-04-24T03:51:31;8.52;;;5.03;;
63120;SDS011;54478;48.684;20.114;2023-04-24T03:54:00;11.55;;;7.53;;
63120;SDS011;54478;48.684;20.114;2023-04-24T03:56:28;9.07;;;5.43;;
63120;SDS011;54478;48.684;20.114;2023-04-24T03:58:55;8.43;;;4.85;;
63120;SDS011;54478;48.684;20.114;2023-04-24T04:01:23;23.80;;;14.50;;
63120;SDS011;54478;48.684;20.114;2023-04-24T04:03:49;34.88;;;21.27;;
63120;SDS011;54478;48.684;20.114;2023-04-24T04:06:15;10.88;;;7.05;;
63120;SDS011;54478;48.684;20.114;2023-04-24T04:08:43;13.73;;;6.10;;
63120;SDS011;54478;48.684;20.114;2023-04-24T04:11:11;12.52;;;7.95;;
63120;SDS011;54478;48.684;20.114;2023-04-24T04:13:39;10.95;;;6.40;;
63120;SDS011;54478;48.684;20.114;2023-04-24T04:16:08;13.07;;;6.47;;
63120;SDS011;54478;48.684;20.114;2023-04-24T04:18:36;12.75;;;6.10;;
63120;SDS011;54478;48.684;20.114;2023-04-24T04:21:05;10.80;;;6.18;;
63120;SDS011;54478;48.684;20.114;2023-04-24T04:23:30;13.13;;;6.53;;
63120;SDS011;54478;48.684;20.114;2023-04-24T04:25:59;11.18;;;6.47;;
63120;SDS011;54478;48.684;20.114;2023-04-24T04:28:27;10.38;;;7.15;;
63120;SDS011;54478;48.684;20.114;2023-04-24T04:30:55;10.63;;;6.45;;
63120;SDS011;54478;48.684;20.114;2023-04-24T04:33:25;10.23;;;6.28;;
63120;SDS011;54478;48.684;20.114;2023-04-24T04:35:53;16.73;;;6.53;;
63120;SDS011;54478;48.684;20.114;2023-04-24T04:38:24;15.07;;;7.82;;
63120;SDS011;54478;48.684;20.114;2023-04-24T04:40:54;21.55;;;6.10;;
63120;SDS011;54478;48.684;20.114;2023-04-24T04:43:24;10.23;;;5.85;;
63120;SDS011;54478;48.684;20.114;2023-04-24T04:45:52;11.50;;;5.93;;
63120;SDS011;54478;48.684;20.114;2023-04-24T04:48:22;18.08;;;7.65;;
63120;SDS011;54478;48.684;20.114;2023-04-24T04:50:50;13.48;;;7.80;;
63120;SDS011;54478;48.684;20.114;2023-04-24T04:53:18;12.73;;;6.15;;
63120;SDS011;54478;48.684;20.114;2023-04-24T04:55:46;12.52;;;6.22;;
63120;SDS011;54478;48.684;20.114;2023-04-24T04:58:15;12.65;;;6.10;;
63120;SDS011;54478;48.684;20.114;2023-04-24T05:00:43;6.10;;;4.25;;
63120;SDS011;54478;48.684;20.114;2023-04-24T05:03:11;13.05;;;6.38;;
63120;SDS011;54478;48.684;20.114;2023-04-24T05:05:40;16.27;;;5.88;;
63120;SDS011;54478;48.684;20.114;2023-04-24T05:08:06;12.27;;;7.60;;
63120;SDS011;54478;48.684;20.114;2023-04-24T05:10:35;8.20;;;5.00;;
63120;SDS011;54478;48.684;20.114;2023-04-24T05:13:04;9.10;;;5.28;;
63120;SDS011;54478;48.684;20.114;2023-04-24T05:15:32;12.05;;;9.00;;
63120;SDS011;54478;48.684;20.114;2023-04-24T05:18:00;13.95;;;7.13;;
63120;SDS011;54478;48.684;20.114;2023-04-24T05:20:28;15.30;;;7.10;;
63120;SDS011;54478;48.684;20.114;2023-04-24T05:22:53;7.78;;;4.57;;
63120;SDS011;54478;48.684;20.114;2023-04-24T05:25:22;14.98;;;5.53;;
63120;SDS011;54478;48.684;20.114;2023-04-24T05:27:50;9.77;;;5.38;;
63120;SDS011;54478;48.684;20.114;2023-04-24T05:30:18;11.60;;;5.72;;
63120;SDS011;54478;48.684;20.114;2023-04-24T05:32:46;7.55;;;5.30;;
63120;SDS011;54478;48.684;20.114;2023-04-24T05:35:14;12.18;;;6.95;;
63120;SDS011;54478;48.684;20.114;2023-04-24T05:37:42;18.42;;;11.77;;
63120;SDS011;54478;48.684;20.114;2023-04-24T05:40:10;13.18;;;6.65;;
63120;SDS011;54478;48.684;20.114;2023-04-24T05:42:39;7.72;;;4.90;;
63120;SDS011;54478;48.684;20.114;2023-04-24T05:45:07;7.60;;;4.85;;
63120;SDS011;54478;48.684;20.114;2023-04-24T05:47:36;6.75;;;4.38;;
63120;SDS011;54478;48.684;20.114;2023-04-24T05:50:04;8.57;;;5.38;;
63120;SDS011;54478;48.684;20.114;2023-04-24T05:52:33;18.20;;;12.38;;
63120;SDS011;54478;48.684;20.114;2023-04-24T05:55:01;7.88;;;5.65;;
63120;SDS011;54478;48.684;20.114;2023-04-24T05:57:29;9.98;;;5.25;;
63120;SDS011;54478;48.684;20.114;2023-04-24T05:59:58;6.88;;;4.47;;
63120;SDS011;54478;48.684;20.114;2023-04-24T06:02:26;13.18;;;5.78;;
63120;SDS011;54478;48.684;20.114;2023-04-24T06:04:55;12.10;;;5.25;;
63120;SDS011;54478;48.684;20.114;2023-04-24T06:07:25;10.13;;;5.00;;
63120;SDS011;54478;48.684;20.114;2023-04-24T06:09:56;6.47;;;4.53;;
63120;SDS011;54478;48.684;20.114;2023-04-24T06:12:25;8.75;;;4.80;;
63120;SDS011;54478;48.684;20.114;2023-04-24T06:14:54;7.97;;;5.35;;
63120;SDS011;54478;48.684;20.114;2023-04-24T06:17:23;5.78;;;4.65;;
63120;SDS011;54478;48.684;20.114;2023-04-24T06:19:51;10.57;;;4.70;;
63120;SDS011;54478;48.684;20.114;2023-04-24T06:22:16;8.73;;;4.88;;
63120;SDS011;54478;48.684;20.114;2023-04-24T06:24:44;9.17;;;4.40;;
63120;SDS011;54478;48.684;20.114;2023-04-24T06:27:12;6.90;;;4.50;;
63120;SDS011;54478;48.684;20.114;2023-04-24T06:29:40;10.95;;;4.68;;
63120;SDS011;54478;48.684;20.114;2023-04-24T06:32:09;9.73;;;4.90;;
63120;SDS011;54478;48.684;20.114;2023-04-24T06:34:37;12.60;;;4.50;;
63120;SDS011;54478;48.684;20.114;2023-04-24T06:37:05;7.22;;;4.85;;
63120;SDS011;54478;48.684;20.114;2023-04-24T06:39:33;12.90;;;5.30;;
63120;SDS011;54478;48.684;20.114;2023-04-24T06:42:02;9.50;;;4.88;;
63120;SDS011;54478;48.684;20.114;2023-04-24T06:44:27;15.85;;;5.18;;
63120;SDS011;54478;48.684;20.114;2023-04-24T06:46:55;8.73;;;4.90;;
63120;SDS011;54478;48.684;20.114;2023-04-24T06:49:23;8.52;;;4.97;;
63120;SDS011;54478;48.684;20.114;2023-04-24T06:51:51;8.10;;;4.65;;
63120;SDS011;54478;48.684;20.114;2023-04-24T06:54:19;9.05;;;5.35;;
63120;SDS011;54478;48.684;20.114;2023-04-24T06:56:48;10.38;;;5.68;;
63120;SDS011;54478;48.684;20.114;2023-04-24T06:59:17;15.13;;;6.07;;
63120;SDS011;54478;48.684;20.114;2023-04-24T07:01:45;13.43;;;6.38;;
63120;SDS011;54478;48.684;20.114;2023-04-24T07:04:13;27.00;;;11.30;;
63120;SDS011;54478;48.684;20.114;2023-04-24T07:06:41;23.13;;;11.18;;
63120;SDS011;54478;48.684;20.114;2023-04-24T07:09:10;15.00;;;9.10;;
63120;SDS011;54478;48.684;20.114;2023-04-24T07:11:38;13.00;;;7.50;;
63120;SDS011;54478;48.684;20.114;2023-04-24T07:14:08;9.45;;;6.93;;
63120;SDS011;54478;48.684;20.114;2023-04-24T07:16:36;9.07;;;5.88;;
63120;SDS011;54478;48.684;20.114;2023-04-24T07:19:04;14.10;;;7.20;;
63120;SDS011;54478;48.684;20.114;2023-04-24T07:21:33;16.88;;;7.20;;
63120;SDS011;54478;48.684;20.114;2023-04-24T07:24:01;14.73;;;7.20;;
63120;SDS011;54478;48.684;20.114;2023-04-24T07:26:29;11.55;;;5.63;;
63120;SDS011;54478;48.684;20.114;2023-04-24T07:28:58;9.73;;;5.32;;
63120;SDS011;54478;48.684;20.114;2023-04-24T07:31:26;12.57;;;6.00;;
63120;SDS011;54478;48.684;20.114;2023-04-24T07:33:51;10.43;;;6.00;;
63120;SDS011;54478;48.684;20.114;2023-04-24T07:36:20;10.15;;;6.20;;
63120;SDS011;54478;48.684;20.114;2023-04-24T07:38:48;10.88;;;6.55;;
63120;SDS011;54478;48.684;20.114;2023-04-24T07:41:16;17.30;;;7.07;;
63120;SDS011;54478;48.684;20.114;2023-04-24T07:43:44;13.70;;;6.30;;
63120;SDS011;54478;48.684;20.114;2023-04-24T07:46:12;14.10;;;7.05;;
63120;SDS011;54478;48.684;20.114;2023-04-24T07:48:40;10.90;;;7.15;;
63120;SDS011;54478;48.684;20.114;2023-04-24T07:51:08;12.52;;;6.63;;
63120;SDS011;54478;48.684;20.114;2023-04-24T07:53:38;13.18;;;7.75;;
63120;SDS011;54478;48.684;20.114;2023-04-24T07:56:06;20.88;;;7.97;;
63120;SDS011;54478;48.684;20.114;2023-04-24T07:58:35;13.40;;;7.93;;
63120;SDS011;54478;48.684;20.114;2023-04-24T08:01:03;16.60;;;8.02;;
63120;SDS011;54478;48.684;20.114;2023-04-24T08:03:31;22.20;;;11.23;;
63120;SDS011;54478;48.684;20.114;2023-04-24T08:05:59;28.77;;;14.70;;
63120;SDS011;54478;48.684;20.114;2023-04-24T08:08:28;19.50;;;10.35;;
63120;SDS011;54478;48.684;20.114;2023-04-24T08:10:56;25.40;;;10.02;;
63120;SDS011;54478;48.684;20.114;2023-04-24T08:13:24;14.57;;;7.43;;
63120;SDS011;54478;48.684;20.114;2023-04-24T08:15:52;9.75;;;6.95;;
63120;SDS011;54478;48.684;20.114;2023-04-24T08:18:20;13.45;;;6.25;;
63120;SDS011;54478;48.684;20.114;2023-04-24T08:20:48;9.10;;;5.70;;
63120;SDS011;54478;48.684;20.114;2023-04-24T08:23:13;9.27;;;5.95;;
63120;SDS011;54478;48.684;20.114;2023-04-24T08:25:41;6.70;;;4.57;;
63120;SDS011;54478;48.684;20.114;2023-04-24T08:28:09;17.92;;;6.15;;
63120;SDS011;54478;48.684;20.114;2023-04-24T08:30:35;8.30;;;5.22;;
63120;SDS011;54478;48.684;20.114;2023-04-24T08:33:04;7.05;;;4.55;;
63120;SDS011;54478;48.684;20.114;2023-04-24T08:35:32;10.07;;;5.13;;
63120;SDS011;54478;48.684;20.114;2023-04-24T08:38:00;7.35;;;4.60;;
63120;SDS011;54478;48.684;20.114;2023-04-24T08:40:28;5.68;;;4.75;;
63120;SDS011;54478;48.684;20.114;2023-04-24T08:42:59;8.27;;;5.20;;
63120;SDS011;54478;48.684;20.114;2023-04-24T08:45:28;8.52;;;5.35;;
63120;SDS011;54478;48.684;20.114;2023-04-24T08:47:56;6.43;;;4.53;;
63120;SDS011;54478;48.684;20.114;2023-04-24T08:50:25;7.55;;;5.28;;
63120;SDS011;54478;48.684;20.114;2023-04-24T08:52:53;16.30;;;8.43;;
63120;SDS011;54478;48.684;20.114;2023-04-24T08:55:22;8.93;;;5.68;;
63120;SDS011;54478;48.684;20.114;2023-04-24T08:57:52;12.57;;;7.57;;
63120;SDS011;54478;48.684;20.114;2023-04-24T09:00:21;8.63;;;6.07;;
63120;SDS011;54478;48.684;20.114;2023-04-24T09:02:49;9.32;;;5.28;;
63120;SDS011;54478;48.684;20.114;2023-04-24T09:05:18;6.57;;;5.30;;
63120;SDS011;54478;48.684;20.114;2023-04-24T09:07:49;7.87;;;4.50;;
63120;SDS011;54478;48.684;20.114;2023-04-24T09:12:47;7.40;;;4.53;;
63120;SDS011;54478;48.684;20.114;2023-04-24T09:15:18;5.75;;;4.38;;
63120;SDS011;54478;48.684;20.114;2023-04-24T09:17:47;8.98;;;5.32;;
63120;SDS011;54478;48.684;20.114;2023-04-24T09:20:15;9.95;;;5.07;;
63120;SDS011;54478;48.684;20.114;2023-04-24T09:22:41;11.05;;;5.95;;
63120;SDS011;54478;48.684;20.114;2023-04-24T09:25:10;11.18;;;5.03;;
63120;SDS011;54478;48.684;20.114;2023-04-24T09:27:41;7.55;;;4.45;;
63120;SDS011;54478;48.684;20.114;2023-04-24T09:30:09;7.65;;;4.60;;
63120;SDS011;54478;48.684;20.114;2023-04-24T09:32:38;7.78;;;5.00;;
63120;SDS011;54478;48.684;20.114;2023-04-24T09:35:07;7.78;;;5.32;;
63120;SDS011;54478;48.684;20.114;2023-04-24T09:37:37;11.27;;;5.80;;
63120;SDS011;54478;48.684;20.114;2023-04-24T09:40:12;13.30;;;5.75;;
63120;SDS011;54478;48.684;20.114;2023-04-24T09:43:11;11.32;;;5.35;;
63120;SDS011;54478;48.684;20.114;2023-04-24T09:45:35;10.00;;;5.57;;
63120;SDS011;54478;48.684;20.114;2023-04-24T09:48:01;13.43;;;6.00;;
63120;SDS011;54478;48.684;20.114;2023-04-24T09:50:29;10.10;;;6.18;;
63120;SDS011;54478;48.684;20.114;2023-04-24T09:52:57;14.50;;;5.50;;
63120;SDS011;54478;48.684;20.114;2023-04-24T09:55:25;11.40;;;7.10;;
63120;SDS011;54478;48.684;20.114;2023-04-24T09:57:52;13.43;;;6.30;;
63120;SDS011;54478;48.684;20.114;2023-04-24T10:00:24;9.15;;;5.57;;
63120;SDS011;54478;48.684;20.114;2023-04-24T10:02:50;14.70;;;6.68;;
63120;SDS011;54478;48.684;20.114;2023-04-24T10:05:20;11.50;;;5.75;;
63120;SDS011;54478;48.684;20.114;2023-04-24T10:07:47;9.57;;;6.25;;
63120;SDS011;54478;48.684;20.114;2023-04-24T10:10:15;10.02;;;6.10;;
63120;SDS011;54478;48.684;20.114;2023-04-24T10:12:41;8.70;;;6.38;;
63120;SDS011;54478;48.684;20.114;2023-04-24T10:15:09;9.48;;;6.07;;
63120;SDS011;54478;48.684;20.114;2023-04-24T10:17:37;12.93;;;6.63;;
63120;SDS011;54478;48.684;20.114;2023-04-24T10:20:07;9.38;;;5.90;;
63120;SDS011;54478;48.684;20.114;2023-04-24T10:22:33;9.73;;;6.40;;
63120;SDS011;54478;48.684;20.114;2023-04-24T10:25:02;11.60;;;7.40;;
63120;SDS011;54478;48.684;20.114;2023-04-24T10:27:31;10.80;;;6.97;;
63120;SDS011;54478;48.684;20.114;2023-04-24T10:30:00;28.73;;;25.52;;
63120;SDS011;54478;48.684;20.114;2023-04-24T10:32:29;11.50;;;8.30;;
63120;SDS011;54478;48.684;20.114;2023-04-24T10:34:58;9.50;;;6.40;;
63120;SDS011;54478;48.684;20.114;2023-04-24T10:37:26;13.07;;;6.53;;
63120;SDS011;54478;48.684;20.114;2023-04-24T10:39:55;16.05;;;7.10;;
63120;SDS011;54478;48.684;20.114;2023-04-24T10:42:24;23.42;;;8.20;;
63120;SDS011;54478;48.684;20.114;2023-04-24T10:44:55;18.70;;;10.63;;
63120;SDS011;54478;48.684;20.114;2023-04-24T10:47:23;11.15;;;6.13;;
63120;SDS011;54478;48.684;20.114;2023-04-24T10:49:52;12.65;;;7.82;;
63120;SDS011;54478;48.684;20.114;2023-04-24T10:52:21;18.75;;;7.10;;
63120;SDS011;54478;48.684;20.114;2023-04-24T10:54:49;13.68;;;7.07;;
63120;SDS011;54478;48.684;20.114;2023-04-24T10:59:47;14.13;;;7.93;;
63120;SDS011;54478;48.684;20.114;2023-04-24T11:02:16;12.00;;;7.78;;
63120;SDS011;54478;48.684;20.114;2023-04-24T11:04:45;14.13;;;7.13;;
63120;SDS011;54478;48.684;20.114;2023-04-24T11:07:14;9.75;;;7.15;;
63120;SDS011;54478;48.684;20.114;2023-04-24T11:09:42;14.80;;;8.20;;
63120;SDS011;54478;48.684;20.114;2023-04-24T11:12:11;13.45;;;7.63;;
63120;SDS011;54478;48.684;20.114;2023-04-24T11:17:34;9.23;;;6.45;;
63120;SDS011;54478;48.684;20.114;2023-04-24T11:20:03;12.73;;;7.60;;
63120;SDS011;54478;48.684;20.114;2023-04-24T11:22:30;14.27;;;8.30;;
63120;SDS011;54478;48.684;20.114;2023-04-24T11:25:01;11.95;;;7.82;;
63120;SDS011;54478;48.684;20.114;2023-04-24T11:27:32;11.50;;;7.53;;
63120;SDS011;54478;48.684;20.114;2023-04-24T11:30:06;16.45;;;8.23;;
63120;SDS011;54478;48.684;20.114;2023-04-24T11:35:06;11.93;;;7.37;;
63120;SDS011;54478;48.684;20.114;2023-04-24T11:40:05;11.98;;;7.75;;
63120;SDS011;54478;48.684;20.114;2023-04-24T11:42:37;13.02;;;9.10;;
63120;SDS011;54478;48.684;20.114;2023-04-24T11:47:33;12.32;;;8.52;;
63120;SDS011;54478;48.684;20.114;2023-04-24T11:50:00;12.77;;;7.85;;
63120;SDS011;54478;48.684;20.114;2023-04-24T11:52:29;13.40;;;8.15;;
63120;SDS011;54478;48.684;20.114;2023-04-24T11:54:57;12.65;;;9.18;;
63120;SDS011;54478;48.684;20.114;2023-04-24T11:57:25;19.05;;;11.98;;
63120;SDS011;54478;48.684;20.114;2023-04-24T12:00:02;20.17;;;10.77;;
63120;SDS011;54478;48.684;20.114;2023-04-24T12:02:31;16.15;;;10.20;;
63120;SDS011;54478;48.684;20.114;2023-04-24T12:04:59;16.00;;;10.18;;
63120;SDS011;54478;48.684;20.114;2023-04-24T12:07:27;16.95;;;9.93;;
63120;SDS011;54478;48.684;20.114;2023-04-24T12:09:58;15.80;;;9.65;;
63120;SDS011;54478;48.684;20.114;2023-04-24T12:12:27;20.55;;;11.80;;
63120;SDS011;54478;48.684;20.114;2023-04-24T12:14:56;17.55;;;10.10;;
63120;SDS011;54478;48.684;20.114;2023-04-24T12:17:29;15.52;;;9.55;;
63120;SDS011;54478;48.684;20.114;2023-04-24T12:19:58;17.55;;;10.05;;
63120;SDS011;54478;48.684;20.114;2023-04-24T12:22:24;17.25;;;9.68;;
63120;SDS011;54478;48.684;20.114;2023-04-24T12:25:03;17.42;;;10.55;;
63120;SDS011;54478;48.684;20.114;2023-04-24T12:27:32;18.48;;;9.70;;
63120;SDS011;54478;48.684;20.114;2023-04-24T12:29:59;18.65;;;10.73;;
63120;SDS011;54478;48.684;20.114;2023-04-24T12:32:27;20.63;;;10.20;;
63120;SDS011;54478;48.684;20.114;2023-04-24T12:34:55;16.95;;;10.40;;
63120;SDS011;54478;48.684;20.114;2023-04-24T12:37:24;13.98;;;9.27;;
63120;SDS011;54478;48.684;20.114;2023-04-24T12:42:30;17.25;;;10.23;;
63120;SDS011;54478;48.684;20.114;2023-04-24T12:44:56;20.27;;;9.93;;
63120;SDS011;54478;48.684;20.114;2023-04-24T12:47:26;16.88;;;10.05;;
63120;SDS011;54478;48.684;20.114;2023-04-24T12:49:54;18.85;;;10.07;;
63120;SDS011;54478;48.684;20.114;2023-04-24T12:52:23;18.23;;;10.85;;
63120;SDS011;54478;48.684;20.114;2023-04-24T12:54:56;14.63;;;8.85;;
63120;SDS011;54478;48.684;20.114;2023-04-24T12:57:25;14.38;;;9.70;;
63120;SDS011;54478;48.684;20.114;2023-04-24T12:59:54;20.35;;;10.77;;
63120;SDS011;54478;48.684;20.114;2023-04-24T13:02:24;20.75;;;10.05;;
63120;SDS011;54478;48.684;20.114;2023-04-24T13:04:53;15.05;;;9.75;;
63120;SDS011;54478;48.684;20.114;2023-04-24T13:07:21;21.83;;;10.43;;
63120;SDS011;54478;48.684;20.114;2023-04-24T13:09:50;15.75;;;10.43;;
63120;SDS011;54478;48.684;20.114;2023-04-24T13:12:19;18.85;;;11.10;;
63120;SDS011;54478;48.684;20.114;2023-04-24T13:14:47;14.70;;;9.38;;
63120;SDS011;54478;48.684;20.114;2023-04-24T13:17:15;16.95;;;11.60;;
63120;SDS011;54478;48.684;20.114;2023-04-24T13:19:43;38.22;;;17.92;;
63120;SDS011;54478;48.684;20.114;2023-04-24T13:22:10;30.90;;;19.08;;
63120;SDS011;54478;48.684;20.114;2023-04-24T13:24:38;27.02;;;19.40;;
63120;SDS011;54478;48.684;20.114;2023-04-24T13:27:08;25.33;;;17.15;;
63120;SDS011;54478;48.684;20.114;2023-04-24T13:29:37;18.10;;;12.68;;
63120;SDS011;54478;48.684;20.114;2023-04-24T13:32:05;18.60;;;11.07;;
63120;SDS011;54478;48.684;20.114;2023-04-24T13:34:33;18.42;;;10.98;;
63120;SDS011;54478;48.684;20.114;2023-04-24T13:37:04;21.47;;;10.93;;
63120;SDS011;54478;48.684;20.114;2023-04-24T13:39:33;17.00;;;10.50;;
63120;SDS011;54478;48.684;20.114;2023-04-24T13:42:01;17.98;;;9.73;;
63120;SDS011;54478;48.684;20.114;2023-04-24T13:44:29;20.42;;;11.63;;
63120;SDS011;54478;48.684;20.114;2023-04-24T13:46:58;18.08;;;10.60;;
63120;SDS011;54478;48.684;20.114;2023-04-24T13:49:26;19.45;;;11.90;;
63120;SDS011;54478;48.684;20.114;2023-04-24T13:51:55;19.88;;;12.10;;
63120;SDS011;54478;48.684;20.114;2023-04-24T13:54:23;22.58;;;13.18;;
63120;SDS011;54478;48.684;20.114;2023-04-24T13:56:55;24.80;;;14.48;;
63120;SDS011;54478;48.684;20.114;2023-04-24T13:59:24;27.45;;;16.67;;
63120;SDS011;54478;48.684;20.114;2023-04-24T14:01:52;18.30;;;11.13;;
63120;SDS011;54478;48.684;20.114;2023-04-24T14:04:20;23.70;;;13.25;;
63120;SDS011;54478;48.684;20.114;2023-04-24T14:06:49;19.67;;;11.75;;
63120;SDS011;54478;48.684;20.114;2023-04-24T14:09:17;20.50;;;13.63;;
63120;SDS011;54478;48.684;20.114;2023-04-24T14:11:45;20.30;;;12.18;;
63120;SDS011;54478;48.684;20.114;2023-04-24T14:14:13;31.38;;;15.20;;
63120;SDS011;54478;48.684;20.114;2023-04-24T14:16:41;25.55;;;15.50;;
63120;SDS011;54478;48.684;20.114;2023-04-24T14:19:09;24.38;;;15.07;;
63120;SDS011;54478;48.684;20.114;2023-04-24T14:21:37;24.35;;;14.55;;
63120;SDS011;54478;48.684;20.114;2023-04-24T14:24:05;18.58;;;11.52;;
63120;SDS011;54478;48.684;20.114;2023-04-24T14:26:33;17.52;;;12.18;;
63120;SDS011;54478;48.684;20.114;2023-04-24T14:29:02;19.27;;;12.13;;
63120;SDS011;54478;48.684;20.114;2023-04-24T14:31:30;26.25;;;14.20;;
63120;SDS011;54478;48.684;20.114;2023-04-24T14:33:58;23.02;;;13.55;;
63120;SDS011;54478;48.684;20.114;2023-04-24T14:36:26;27.83;;;15.50;;
63120;SDS011;54478;48.684;20.114;2023-04-24T14:38:54;28.85;;;16.60;;
63120;SDS011;54478;48.684;20.114;2023-04-24T14:41:22;32.28;;;19.55;;
63120;SDS011;54478;48.684;20.114;2023-04-24T14:43:50;24.83;;;15.05;;
63120;SDS011;54478;48.684;20.114;2023-04-24T14:46:18;24.73;;;14.00;;
63120;SDS011;54478;48.684;20.114;2023-04-24T14:48:47;19.38;;;12.50;;